createdAt,value
2022-10-07T00:00:18.350Z,101723.91
2022-10-07T00:03:21.800Z,101722.06
2022-10-07T00:06:23.412Z,101720.31
2022-10-07T00:09:25.149Z,101717.66
2022-10-07T00:12:26.730Z,101723.03
2022-10-07T00:15:28.374Z,101723.06
2022-10-07T00:18:29.942Z,101714.38
2022-10-07T00:21:33.654Z,101716.25
2022-10-07T00:24:35.266Z,101718.25
2022-10-07T00:27:37.287Z,101718.41
2022-10-07T00:30:38.880Z,101717.69
2022-10-07T00:33:42.055Z,101721.13
2022-10-07T00:36:43.750Z,101713.22
2022-10-07T00:39:45.750Z,101703.41
2022-10-07T00:42:47.142Z,101699.88
2022-10-07T00:45:51.206Z,101698.97
2022-10-07T00:48:54.525Z,101696.47
2022-10-07T00:51:57.825Z,101687.63
2022-10-07T00:55:02.243Z,101682.38
2022-10-07T00:58:09.347Z,101682.38
2022-10-07T01:01:12.034Z,101683.34
2022-10-07T01:04:15.554Z,101682.50
2022-10-07T01:07:20.173Z,101670.06
2022-10-07T01:10:22.937Z,101669.91
2022-10-07T01:13:32.879Z,101671.78
2022-10-07T01:16:48.693Z,101664.63
2022-10-07T01:20:31.239Z,101661.03
2022-10-07T01:23:52.923Z,101654.13
2022-10-07T01:26:57.442Z,101646.22
2022-10-07T01:30:03.282Z,101649.72
2022-10-07T01:33:12.740Z,101643.69
2022-10-07T01:36:17.605Z,101647.31
2022-10-07T01:39:25.655Z,101640.19
2022-10-07T01:42:28.009Z,101629.41
2022-10-07T01:45:32.576Z,101626.69
2022-10-07T01:48:35.150Z,101626.88
2022-10-07T01:51:39.889Z,101623.44
2022-10-07T01:55:10.596Z,101616.63
2022-10-07T01:58:35.261Z,101622.13
2022-10-07T02:01:56.802Z,101609.06
2022-10-07T02:05:09.613Z,101596.94
2022-10-07T02:08:30.374Z,101606.56
2022-10-07T02:11:38.534Z,101604.78
2022-10-07T02:14:48.889Z,101586.38
2022-10-07T02:17:54.582Z,101592.63
2022-10-07T02:20:58.117Z,101598.13
2022-10-07T02:24:00.547Z,101592.00
2022-10-07T02:27:07.745Z,101587.50
2022-10-07T02:30:16.008Z,101581.34
2022-10-07T02:33:22.224Z,101577.66
2022-10-07T02:36:31.974Z,101579.44
2022-10-07T02:39:34.754Z,101579.81
2022-10-07T02:42:53.784Z,101574.75
2022-10-07T02:46:04.661Z,101572.47
2022-10-07T02:49:10.974Z,101569.91
2022-10-07T02:52:17.080Z,101567.19
2022-10-07T02:55:24.816Z,101561.09
2022-10-07T02:58:26.929Z,101562.66
2022-10-07T03:01:32.627Z,101566.19
2022-10-07T03:04:34.967Z,101556.41
2022-10-07T03:07:36.980Z,101565.34
2022-10-07T03:10:40.566Z,101552.00
2022-10-07T03:13:43.162Z,101555.72
2022-10-07T03:16:44.736Z,101561.19
2022-10-07T03:19:46.418Z,101557.53
2022-10-07T03:22:48.008Z,101551.38
2022-10-07T03:25:54.023Z,101549.47
2022-10-07T03:28:56.524Z,101546.78
2022-10-07T03:31:59.498Z,101545.03
2022-10-07T03:35:01.750Z,101545.09
2022-10-07T03:38:08.178Z,101544.28
2022-10-07T03:41:09.616Z,101544.34
2022-10-07T03:44:11.241Z,101541.69
2022-10-07T03:47:12.631Z,101536.56
2022-10-07T03:50:14.266Z,101549.09
2022-10-07T03:53:15.839Z,101528.88
2022-10-07T03:56:17.545Z,101531.31
2022-10-07T03:59:18.994Z,101526.22
2022-10-07T04:02:23.328Z,101521.75
2022-10-07T04:05:25.205Z,101524.69
2022-10-07T04:08:28.329Z,101522.13
2022-10-07T04:11:31.254Z,101523.94
2022-10-07T04:14:34.993Z,101524.91
2022-10-07T04:17:36.704Z,101520.59
2022-10-07T04:20:38.829Z,101519.69
2022-10-07T04:23:42.320Z,101524.91
2022-10-07T04:26:43.933Z,101517.75
2022-10-07T04:29:45.709Z,101514.22
2022-10-07T04:32:50.549Z,101508.84
2022-10-07T04:35:54.826Z,101506.22
2022-10-07T04:38:57.110Z,101508.16
2022-10-07T04:42:02.626Z,101506.66
2022-10-07T04:45:07.169Z,101500.69
2022-10-07T04:48:09.048Z,101497.19
2022-10-07T04:51:12.864Z,101488.69
2022-10-07T04:54:16.592Z,101491.22
2022-10-07T04:57:23.222Z,101497.28
2022-10-07T05:00:25.614Z,101495.59
2022-10-07T05:03:29.066Z,101480.56
2022-10-07T05:06:30.626Z,101478.81
2022-10-07T05:09:32.152Z,101479.59
2022-10-07T05:12:34.352Z,101474.59
2022-10-07T05:15:35.870Z,101472.09
2022-10-07T05:18:39.312Z,101480.00
2022-10-07T05:21:45.505Z,101468.59
2022-10-07T05:24:48.135Z,101460.88
2022-10-07T05:27:53.849Z,101461.75
2022-10-07T05:31:22.125Z,101468.84
2022-10-07T05:34:27.956Z,101466.34
2022-10-07T05:37:30.032Z,101466.41
2022-10-07T05:40:32.380Z,101476.78
2022-10-07T05:43:38.045Z,101471.41
2022-10-07T05:46:41.373Z,101469.56
2022-10-07T05:49:43.310Z,101467.75
2022-10-07T05:52:45.388Z,101473.06
2022-10-07T05:55:49.278Z,101468.16
2022-10-07T05:58:52.476Z,101461.16
2022-10-07T06:01:57.342Z,101459.56
2022-10-07T06:04:58.880Z,101455.19
2022-10-07T06:08:00.394Z,101457.97
2022-10-07T06:11:21.941Z,101450.97
2022-10-07T06:14:25.239Z,101456.25
2022-10-07T06:17:26.831Z,101460.66
2022-10-07T06:20:31.569Z,101464.13
2022-10-07T06:23:34.885Z,101459.72
2022-10-07T06:26:36.332Z,101460.53
2022-10-07T06:29:38.089Z,101458.69
2022-10-07T06:32:39.741Z,101464.72
2022-10-07T06:35:41.218Z,101469.22
2022-10-07T06:38:51.836Z,101464.06
2022-10-07T06:41:57.560Z,101465.97
2022-10-07T06:45:19.107Z,101469.50
2022-10-07T06:48:23.001Z,101470.56
2022-10-07T06:51:24.488Z,101472.34
2022-10-07T06:54:26.683Z,101465.34
2022-10-07T06:57:44.956Z,101467.91
2022-10-07T07:00:49.998Z,101474.69
2022-10-07T07:03:52.201Z,101471.88
2022-10-07T07:06:53.687Z,101464.75
2022-10-07T07:09:56.106Z,101461.06
2022-10-07T07:12:57.724Z,101466.19
2022-10-07T07:16:00.008Z,101459.88
2022-10-07T07:19:08.535Z,101463.56
2022-10-07T07:22:11.371Z,101462.88
2022-10-07T07:25:14.256Z,101467.41
2022-10-07T07:28:15.953Z,101461.16
2022-10-07T07:31:17.983Z,101463.75
2022-10-07T07:34:19.730Z,101473.13
2022-10-07T07:37:23.192Z,101474.75
2022-10-07T07:40:28.109Z,101465.72
2022-10-07T07:43:29.569Z,101465.59
2022-10-07T07:46:36.982Z,101461.09
2022-10-07T07:49:38.420Z,101451.28
2022-10-07T07:52:42.225Z,101448.47
2022-10-07T07:55:56.670Z,101460.31
2022-10-07T07:59:01.539Z,101447.50
2022-10-07T08:02:04.205Z,101447.53
2022-10-07T08:05:06.788Z,101443.91
2022-10-07T08:08:08.633Z,101447.50
2022-10-07T08:11:18.744Z,101434.13
2022-10-07T08:14:22.751Z,101442.66
2022-10-07T08:17:26.314Z,101440.41
2022-10-07T08:20:27.841Z,101438.31
2022-10-07T08:23:30.245Z,101439.53
2022-10-07T08:26:34.178Z,101438.25
2022-10-07T08:29:38.080Z,101436.56
2022-10-07T08:32:41.154Z,101438.19
2022-10-07T08:35:42.597Z,101429.88
2022-10-07T08:38:48.284Z,101425.22
2022-10-07T08:42:13.393Z,101423.88
2022-10-07T08:45:23.962Z,101419.22
2022-10-07T08:48:31.314Z,101419.03
2022-10-07T08:51:41.823Z,101412.66
2022-10-07T08:54:43.250Z,101410.81
2022-10-07T08:57:56.859Z,101409.34
2022-10-07T09:01:24.543Z,101407.06
2022-10-07T09:04:32.936Z,101399.31
2022-10-07T09:07:40.205Z,101394.34
2022-10-07T09:10:53.286Z,101395.81
2022-10-07T09:14:08.923Z,101393.03
2022-10-07T09:17:17.792Z,101385.66
2022-10-07T09:20:23.995Z,101378.47
2022-10-07T09:23:30.462Z,101385.19
2022-10-07T09:26:31.985Z,101387.84
2022-10-07T09:29:33.536Z,101387.78
2022-10-07T09:32:40.315Z,101380.13
2022-10-07T09:35:45.314Z,101379.25
2022-10-07T09:38:53.991Z,101382.88
2022-10-07T09:41:55.659Z,101370.88
2022-10-07T09:45:18.850Z,101373.75
2022-10-07T09:48:25.147Z,101371.66
2022-10-07T09:51:27.489Z,101372.47
2022-10-07T09:54:31.140Z,101359.28
2022-10-07T09:57:35.462Z,101362.28
2022-10-07T10:00:52.327Z,101352.81
2022-10-07T10:03:58.018Z,101351.94
2022-10-07T10:07:06.382Z,101345.28
2022-10-07T10:10:21.850Z,101339.88
2022-10-07T10:13:35.219Z,101327.56
2022-10-07T10:16:40.353Z,101327.66
2022-10-07T10:19:41.743Z,101336.72
2022-10-07T10:22:43.398Z,101328.59
2022-10-07T10:26:16.375Z,101325.34
2022-10-07T10:29:57.214Z,101323.09
2022-10-07T10:33:35.508Z,101317.81
2022-10-07T10:36:42.126Z,101308.88
2022-10-07T10:40:00.025Z,101298.84
2022-10-07T10:43:11.097Z,101299.75
2022-10-07T10:46:51.920Z,101285.63
2022-10-07T10:50:12.526Z,101281.19
2022-10-07T10:53:51.320Z,101278.03
2022-10-07T10:56:53.863Z,101274.47
2022-10-07T11:00:04.946Z,101273.66
2022-10-07T11:03:26.689Z,101265.38
2022-10-07T11:06:31.018Z,101262.72
2022-10-07T11:09:54.199Z,101258.72
2022-10-07T11:13:19.376Z,101236.47
2022-10-07T11:16:27.075Z,101244.91
2022-10-07T11:19:40.238Z,101232.31
2022-10-07T11:22:51.139Z,101233.41
2022-10-07T11:26:29.959Z,101231.03
2022-10-07T11:29:41.121Z,101223.88
2022-10-07T11:33:06.776Z,101224.84
2022-10-07T11:36:14.906Z,101213.97
2022-10-07T11:39:16.418Z,101215.56
2022-10-07T11:42:24.210Z,101211.22
2022-10-07T11:45:37.275Z,101197.09
2022-10-07T11:48:44.750Z,101194.34
2022-10-07T11:52:09.685Z,101193.25
2022-10-07T11:55:29.797Z,101193.34
2022-10-07T11:58:37.485Z,101185.97
2022-10-07T12:01:52.293Z,101180.78
2022-10-07T12:04:59.321Z,101174.19
2022-10-07T12:08:23.129Z,101174.31
2022-10-07T12:11:33.338Z,101169.50
2022-10-07T12:14:42.974Z,101154.69
2022-10-07T12:18:05.166Z,101144.47
2022-10-07T12:21:08.209Z,101137.84
2022-10-07T12:24:15.571Z,101128.19
2022-10-07T12:27:21.955Z,101126.78
2022-10-07T12:30:49.675Z,101122.25
2022-10-07T12:34:07.266Z,101117.50
2022-10-07T12:37:45.438Z,101113.69
2022-10-07T12:41:00.741Z,101112.84
2022-10-07T12:44:08.204Z,101108.31
2022-10-07T12:47:28.918Z,101106.16
2022-10-07T12:50:32.460Z,101093.03
2022-10-07T12:53:41.471Z,101093.91
2022-10-07T12:56:44.437Z,101090.03
2022-10-07T13:00:10.481Z,101088.63
2022-10-07T13:03:46.403Z,101074.25
2022-10-07T13:06:53.909Z,101067.53
2022-10-07T13:10:23.127Z,101071.75
2022-10-07T13:13:41.255Z,101066.13
2022-10-07T13:17:22.948Z,101059.94
2022-10-07T13:20:59.033Z,101053.66
2022-10-07T13:24:00.509Z,101046.94
2022-10-07T13:27:01.970Z,101045.72
2022-10-07T13:30:05.939Z,101038.81
2022-10-07T13:33:26.619Z,101032.44
2022-10-07T13:36:32.342Z,101031.91
2022-10-07T13:39:33.717Z,101025.69
2022-10-07T13:42:35.213Z,101012.75
2022-10-07T13:45:45.057Z,101008.56
2022-10-07T13:48:47.542Z,101009.84
2022-10-07T13:51:51.818Z,100993.56
2022-10-07T13:54:56.913Z,100998.09
2022-10-07T13:58:01.851Z,100995.44
2022-10-07T14:01:05.618Z,100990.97
2022-10-07T14:04:18.784Z,100992.31
2022-10-07T14:07:22.048Z,100988.50
2022-10-07T14:10:26.430Z,100983.53
2022-10-07T14:13:29.035Z,100980.28
2022-10-07T14:16:30.573Z,100973.22
2022-10-07T14:19:32.879Z,100969.78
2022-10-07T14:22:38.893Z,100956.13
2022-10-07T14:25:55.568Z,100951.41
2022-10-07T14:28:57.937Z,100958.31
2022-10-07T14:32:50.456Z,100951.97
2022-10-07T14:36:10.177Z,100952.47
2022-10-07T14:39:23.398Z,100936.19
2022-10-07T14:42:29.102Z,100936.41
2022-10-07T14:45:30.503Z,100942.16
2022-10-07T14:48:32.023Z,100929.75
2022-10-07T14:51:33.441Z,100936.44
2022-10-07T14:54:34.872Z,100932.31
2022-10-07T14:57:36.247Z,100926.00
2022-10-07T15:00:39.762Z,100927.72
2022-10-07T15:03:41.465Z,100923.44
2022-10-07T15:06:45.390Z,100913.69
2022-10-07T15:09:50.124Z,100908.25
2022-10-07T15:12:52.266Z,100900.41
2022-10-07T15:15:53.645Z,100906.16
2022-10-07T15:18:55.053Z,100904.63
2022-10-07T15:21:56.464Z,100905.47
2022-10-07T15:24:57.921Z,100899.53
2022-10-07T15:28:01.078Z,100897.94
2022-10-07T15:31:08.217Z,100892.84
2022-10-07T15:34:10.798Z,100886.38
2022-10-07T15:37:12.205Z,100874.69
2022-10-07T15:40:14.591Z,100872.81
2022-10-07T15:43:15.975Z,100882.53
2022-10-07T15:46:17.546Z,100882.06
2022-10-07T15:49:19.043Z,100885.03
2022-10-07T15:52:20.421Z,100885.22
2022-10-07T15:55:21.806Z,100884.09
2022-10-07T15:58:28.759Z,100867.91
2022-10-07T16:01:32.278Z,100861.91
2022-10-07T16:04:33.789Z,100858.47
2022-10-07T16:07:35.268Z,100853.13
2022-10-07T16:10:37.266Z,100851.59
2022-10-07T16:13:44.064Z,100858.66
2022-10-07T16:16:46.113Z,100860.94
2022-10-07T16:19:48.004Z,100857.69
2022-10-07T16:22:49.825Z,100859.81
2022-10-07T16:25:51.252Z,100849.97
2022-10-07T16:29:12.439Z,100850.56
2022-10-07T16:32:14.097Z,100864.16
2022-10-07T16:35:15.625Z,100869.88
2022-10-07T16:38:17.002Z,100868.56
2022-10-07T16:41:19.265Z,100857.47
2022-10-07T16:44:21.063Z,100855.16
2022-10-07T16:47:22.707Z,100845.03
2022-10-07T16:50:27.210Z,100853.47
2022-10-07T16:53:28.862Z,100848.16
2022-10-07T16:56:35.150Z,100847.06
2022-10-07T16:59:36.573Z,100840.28
2022-10-07T17:02:38.057Z,100855.47
2022-10-07T17:05:39.444Z,100842.22
2022-10-07T17:08:47.482Z,100851.34
2022-10-07T17:11:49.679Z,100849.63
2022-10-07T17:14:51.088Z,100853.22
2022-10-07T17:17:53.174Z,100849.97
2022-10-07T17:20:55.293Z,100849.25
2022-10-07T17:23:57.779Z,100854.41
2022-10-07T17:26:59.218Z,100850.59
2022-10-07T17:30:00.978Z,100854.34
2022-10-07T17:33:02.362Z,100845.94
2022-10-07T17:36:07.142Z,100845.41
2022-10-07T17:39:08.862Z,100848.00
2022-10-07T17:42:10.273Z,100841.63
2022-10-07T17:45:12.125Z,100844.38
2022-10-07T17:48:13.593Z,100848.06
2022-10-07T17:51:16.601Z,100850.19
2022-10-07T17:54:18.117Z,100847.94
2022-10-07T17:57:19.748Z,100842.59
2022-10-07T18:00:21.238Z,100844.25
2022-10-07T18:03:23.007Z,100839.13
2022-10-07T18:06:26.347Z,100844.50
2022-10-07T18:09:28.158Z,100839.44
2022-10-07T18:12:48.021Z,100837.50
2022-10-07T18:15:57.615Z,100838.44
2022-10-07T18:18:59.509Z,100848.84
2022-10-07T18:22:02.814Z,100845.16
2022-10-07T18:25:05.273Z,100839.03
2022-10-07T18:28:07.325Z,100839.03
2022-10-07T18:31:11.986Z,100845.41
2022-10-07T18:34:13.802Z,100835.94
2022-10-07T18:37:15.207Z,100839.47
2022-10-07T18:40:16.672Z,100839.63
2022-10-07T18:43:18.045Z,100838.59
2022-10-07T18:46:19.425Z,100839.47
2022-10-07T18:49:21.142Z,100835.34
2022-10-07T18:52:22.561Z,100839.78
2022-10-07T18:55:24.074Z,100838.81
2022-10-07T18:58:25.589Z,100842.53
2022-10-07T19:01:30.105Z,100833.69
2022-10-07T19:04:32.154Z,100827.50
2022-10-07T19:07:33.559Z,100822.16
2022-10-07T19:10:41.601Z,100826.69
2022-10-07T19:13:53.994Z,100823.41
2022-10-07T19:16:55.366Z,100834.84
2022-10-07T19:20:00.353Z,100819.66
2022-10-07T19:23:01.976Z,100821.53
2022-10-07T19:26:03.620Z,100822.34
2022-10-07T19:29:08.862Z,100820.00
2022-10-07T19:32:10.365Z,100809.66
2022-10-07T19:35:11.908Z,100814.97
2022-10-07T19:38:13.785Z,100808.88
2022-10-07T19:41:16.950Z,100818.03
2022-10-07T19:44:18.570Z,100817.31
2022-10-07T19:47:20.138Z,100819.09
2022-10-07T19:50:22.642Z,100813.84
2022-10-07T19:53:24.035Z,100810.25
2022-10-07T19:56:35.485Z,100808.53
2022-10-07T19:59:36.893Z,100805.06
2022-10-07T20:02:38.293Z,100806.03
2022-10-07T20:05:43.693Z,100809.72
2022-10-07T20:08:46.679Z,100805.41
2022-10-07T20:11:48.124Z,100802.84
2022-10-07T20:14:49.864Z,100794.91
2022-10-07T20:17:51.276Z,100798.69
2022-10-07T20:20:58.568Z,100800.56
2022-10-07T20:24:00.037Z,100792.81
2022-10-07T20:27:01.422Z,100786.69
2022-10-07T20:30:07.407Z,100784.22
2022-10-07T20:33:08.845Z,100791.25
2022-10-07T20:36:13.076Z,100791.16
2022-10-07T20:39:50.958Z,100792.81
2022-10-07T20:42:53.492Z,100799.63
2022-10-07T20:45:58.891Z,100797.94
2022-10-07T20:49:00.864Z,100793.34
2022-10-07T20:52:07.199Z,100797.56
2022-10-07T20:55:09.589Z,100797.81
2022-10-07T20:58:10.985Z,100793.66
2022-10-07T21:01:13.166Z,100792.88
2022-10-07T21:04:15.725Z,100789.44
2022-10-07T21:07:18.589Z,100798.34
2022-10-07T21:10:19.956Z,100796.75
2022-10-07T21:13:21.367Z,100788.72
2022-10-07T21:16:24.480Z,100796.94
2022-10-07T21:19:29.549Z,100789.94
2022-10-07T21:22:30.974Z,100779.41
2022-10-07T21:25:32.926Z,100775.97
2022-10-07T21:28:38.789Z,100774.22
2022-10-07T21:31:40.777Z,100779.56
2022-10-07T21:34:42.933Z,100769.09
2022-10-07T21:37:44.677Z,100776.03
2022-10-07T21:40:46.317Z,100776.19
2022-10-07T21:43:52.699Z,100774.47
2022-10-07T21:46:54.121Z,100777.06
2022-10-07T21:49:56.768Z,100782.38
2022-10-07T21:52:58.204Z,100787.69
2022-10-07T21:56:04.699Z,100771.66
2022-10-07T21:59:06.098Z,100770.72
2022-10-07T22:02:08.393Z,100770.72
2022-10-07T22:05:11.486Z,100764.63
2022-10-07T22:08:34.526Z,100766.72
2022-10-07T22:11:36.125Z,100762.28
2022-10-07T22:14:37.620Z,100775.25
2022-10-07T22:17:38.996Z,100768.22
2022-10-07T22:20:40.821Z,100768.28
2022-10-07T22:23:43.387Z,100767.50
2022-10-07T22:26:46.628Z,100775.94
2022-10-07T22:29:48.320Z,100770.69
2022-10-07T22:32:49.699Z,100766.22
2022-10-07T22:35:51.217Z,100766.63
2022-10-07T22:38:55.511Z,100763.53
2022-10-07T22:41:58.473Z,100767.97
2022-10-07T22:44:59.876Z,100765.72
2022-10-07T22:48:02.938Z,100760.41
2022-10-07T22:51:08.139Z,100764.09
2022-10-07T22:54:13.018Z,100766.31
2022-10-07T22:57:14.490Z,100763.75
2022-10-07T23:00:15.987Z,100765.47
2022-10-07T23:03:17.471Z,100771.00
2022-10-07T23:06:19.746Z,100759.50
2022-10-07T23:09:21.128Z,100753.34
2022-10-07T23:12:22.613Z,100748.81
2022-10-07T23:15:23.985Z,100753.28
2022-10-07T23:18:26.639Z,100746.16
2022-10-07T23:21:32.729Z,100748.75
2022-10-07T23:24:34.168Z,100751.41
2022-10-07T23:27:38.371Z,100754.06
2022-10-07T23:30:39.745Z,100751.53
2022-10-07T23:33:41.163Z,100746.22
2022-10-07T23:36:42.605Z,100742.72
2022-10-07T23:39:44.008Z,100745.31
2022-10-07T23:42:46.101Z,100748.75
2022-10-07T23:45:47.766Z,100740.00
2022-10-07T23:48:49.918Z,100733.75
2022-10-07T23:51:51.312Z,100735.53
2022-10-07T23:54:52.703Z,100727.41
2022-10-07T23:57:54.115Z,100719.38
